Olympic National Park, WA

6:29 AM PDT on August 20, 2014 (GMT -0700)
Fairchild International | Change Station
CLOSE
Current Station
Airport
Location: Port Angeles,
Elevation: 289 ft
Nearby Weather Stations

Elev 289 ft 48.12 °N, 123.50 °W | Updated 36 minutes ago

Clear
Clear
53 °F
Feels Like 53 °F
N
4
Wind Variable Wind from SW

Today
High -- | Low -- °F
--% Chance of Precip.
Yesterday
High -- | Low -- °F
Precip. -- in
6:15 AM 8:18 PM
Waning Crescent, 21% visible
Pressure 29.90 in
Visibility 10.0 miles
Clouds Clear
Dew Point 50 °F
Humidity 89%
Rainfall 0.00 in
Snow Depth Not available.
UV 0 out of 12
Pollen 2.70 out of 12
PM2.5 Good
Flu Activity Not available.
METAR KCLM 201253Z AUTO 22003KT 10SM CLR 12/10 A2990 RMK AO2 SLP124 T01170100 $

More Conditions Fewer Conditions

Pressure 29.90 in
Visibility 10.0 miles
Clouds Clear
Dew Point 50 °F
Humidity 89%
Rainfall 0.00 in
Snow Depth Not available.
UV 0 out of 12
Pollen 2.70 out of 12
PM2.5 Good
Flu Activity Not available.
METAR KCLM 201253Z AUTO 22003KT 10SM CLR 12/10 A2990 RMK AO2 SLP124 T01170100 $

More Conditions Fewer Conditions

10-Day Weather Forecast

Almanac

Astronomy

Aug. 20, 2014 Rise Set
Actual Time 6:15 AM PDT 8:18 PM PDT
Civil Twilight 5:42 AM PDT 8:51 PM PDT
Nautical Twilight 5:00 AM PDT 9:32 PM PDT
Astronomical Twilight 4:14 AM PDT 10:18 PM PDT
Moon 1:52 AM PDT 5:15 PM PDT
Length of Visible Light 15h 09m
Length of Day
14h 02m
Tomorrow will be 3m 13s shorter.
Waning Crescent, 21% of the Moon is Illuminated
Today
Waning Crescent
Aug 25
New
Sep 2
First Quarter
Sep 8
Full
Sep 15
Last Quarter

Today's Extremes

State Highs State Lows

Community

WunderPhotos

Upload Photos

1,745,623 photos uploaded!

WunderBlogs® & News

By Dr. Jeff Masters
Director of Meteorology, Weather Underground
By Kari Strenfel
Meteorologist, Weather Underground
By Christopher C. Burt
Weather Historian, Weather Underground
August 20, 2014
August 20, 2014
August 20, 2014

Nearby

Air Quality

  Air Quality AQ Index Pollutant
Yesterday Good
PM2.5
Current Good
PM2.5

Snow Depth

Station Depth Elevation
Dungeness 3 in 4100 ft
Mount Crag 0 in 4050 ft
Alpine Meadows 0 in 3500 ft
Elbow Lake 0 in 3200 ft
Mf Nooksack 0 in 4980 ft

Earthquake Activity

City Distance Mag. Time & Date
No recent earthquake activity has been reported nearby.
Minimum magnitude displayed is 2.5.

Coastal Water Temperatures

Place Temperature
Port Angeles, WA 52.0 °F
Friday Harbor, WA 55.0 °F
Port Townsend, WA 53.1 °F
La Push, WA 50.0 °F

Nearby Weather Stations